Tümü
Riversleigh Airport YRLH Hava Durumu
There is no TAF data available at YRLH or any nearby airports.
There is no METAR data available at YRLH. Showing METAR data for YCNY (19 mi K).
Yakın zamandaki YCNY METAR geçmişi (YRLH verisi yok)
| Date | Time (AEST) | Flight Rules | Wind Dir. | Speed | Type | Height AGL (ft) | Visibility | Temp (°C) | Temp (°F) | Dew Point (°C) | Dew Point (°F) | Rel. Humid. | Pressure | Density Altitude | Remarks |
|---|---|---|---|---|---|---|---|---|---|---|---|---|---|---|---|
| 10-May | 01:00 | n/a | 110° | 5 kt | Missing | 24° | 75° | 8° | 46° | 36% | 1017 mb | 1.384 ft | |||
| 10-May | 00:00 | n/a | 160° | 6 kt | Missing | 25° | 77° | 7° | 44° | 32% | 1017 mb | 1.504 ft | |||
| 09-May | 23:00 | n/a | 150° | 7 kt | Missing | 26° | 78° | 8° | 46° | 32% | 1017 mb | 1.624 ft | |||
| 09-May | 22:00 | n/a | 150° | 6 kt | Missing | 25° | 77° | 10° | 50° | 39% | 1017 mb | 1.504 ft | |||
| 09-May | 21:00 | n/a | 110° | 4 kt | Missing | 25° | 77° | 12° | 53° | 44% | 1017 mb | 1.504 ft | |||
| 09-May | 20:00 | n/a | 140° | 5 kt | Missing | 26° | 78° | 11° | 51° | 39% | 1016 mb | 1.654 ft | |||
| 09-May | 19:00 | n/a | 110° | 5 kt | Missing | 26° | 78° | 12° | 53° | 42% | 1016 mb | 1.654 ft | |||
| 09-May | 18:00 | n/a | 120° | 6 kt | Missing | 28° | 82° | 11° | 51° | 35% | 1015 mb | 1.923 ft | |||
| 09-May | 17:00 | n/a | 130° | 8 kt | Missing | 29° | 84° | 11° | 51° | 33% | 1014 mb | 2.073 ft | |||
| 09-May | 16:00 | n/a | 150° | 7 kt | Missing | 29° | 84° | 11° | 51° | 33% | 1014 mb | 2.073 ft | |||
| 09-May | 15:00 | n/a | 130° | 9 kt | Missing | 29° | 84° | 11° | 51° | 33% | 1014 mb | 2.073 ft | |||
| 09-May | 14:00 | n/a | 140° | 9 kt | Missing | 30° | 86° | 11° | 51° | 31% | 1015 mb | 2.163 ft | |||
| 09-May | 13:00 | n/a | 150° | 10 kt | Missing | 29° | 84° | 9° | 48° | 29% | 1016 mb | 2.014 ft | |||
| 09-May | 12:00 | n/a | 140° | 10 kt | Missing | 28° | 82° | 8° | 46° | 28% | 1017 mb | 1.864 ft | |||
| 09-May | 11:00 | n/a | 130° | 11 kt | Missing | 25° | 77° | 5° | 41° | 28% | 1018 mb | 1.474 ft | |||
| 09-May | 10:00 | n/a | 140° | 11 kt | Missing | 23° | 73° | 1° | 33° | 23% | 1018 mb | 1.234 ft | |||
| 09-May | 09:00 | n/a | 160° | 9 kt | Missing | 22° | 71° | 0° | 32° | 23% | 1018 mb | 1.114 ft | |||
| 09-May | 08:00 | n/a | 170° | 7 kt | Missing | 20° | 68° | 1° | 33° | 28% | 1017 mb | 904 ft | |||
| 09-May | 07:00 | n/a | 170° | 6 kt | Missing | 18° | 64° | 2° | 35° | 34% | 1017 mb | 664 ft | |||
| 09-May | 06:00 | n/a | 170° | 6 kt | Missing | 19° | 66° | 3° | 37° | 34% | 1016 mb | 814 ft | |||
| 09-May | 05:00 | n/a | 160° | 7 kt | Missing | 19° | 66° | 4° | 39° | 37% | 1016 mb | 814 ft | |||
| 09-May | 04:00 | n/a | 170° | 7 kt | Missing | 20° | 68° | 6° | 42° | 40% | 1016 mb | 934 ft | |||
| 09-May | 03:00 | n/a | 170° | 7 kt | Missing | 20° | 68° | 7° | 44° | 43% | 1016 mb | 934 ft | |||
| 09-May | 02:00 | n/a | 170° | 8 kt | Missing | 21° | 69° | 7° | 44° | 40% | 1016 mb | 1.054 ft |
Giriş
| Tarayıcınız desteklenmiyor. tarayıcınızı yükseltin |
